首页
METAR-TAF:

METAR-TAF

机场 :

悉尼机场

悉尼, 澳大利亚

纬度: 33-57S, 经度: 151-11E, 海拔: 6米

当前天气观测

该预报发布于15分钟前的04:00 UTC
风速5节,风向西北
温度 19°C
湿度 34%
气压 1022 hPa
能见度10公里或以上
1500米以下无云,无积雨云

METAR: YSSY 230400Z 31005KT CAVOK 19/03 Q1022

时间: 14:15 (04:15 UTC)

预报

该预报发布于5小时和3分钟前的23:12 UTC
预报有效从23日的 00点(UTC)到 24日的 06点(UTC)
风速8节,风向西
能见度10公里或以上
1500米以下无云,无积雨云
从 23日的 0600点(UTC)
风速8节,风向南转西南
能见度10公里或以上
1500米以下无云,无积雨云
从 23日的 1800点(UTC)
风速8节,风向西转西北
能见度10公里或以上
少量云层高于3000英尺
从 23日的 2300点(UTC)
风速15节,风向
能见度10公里或以上
散云层高于3500英尺

TAF: YSSY 222312Z 2300/2406 27008KT CAVOK FM230600 21008KT CAVOK FM231800 29008KT 9999 FEW030 FM232300 18015KT 9999 SCT035

超过4000个机场的气象观测和天气预报(METAR&TAF报告)。

可查询的气象台以黄色和红色小点在地图上表示。

将鼠标移到小点上方,可查看气象台名称。

然后点击查看天气观测和预报。

如需切换地图:点击带黑十字的绿色按钮放大地图;点击带横线的绿色按钮缩小地图;或者点击绿色箭头查看邻近地区的地图。


METAR-TAF: